sensor_id;sensor_type;location;lat;lon;timestamp;temperature;humidity
59857;DHT22;45733;52.668;6.860;2023-04-03T00:02:07;2.80;99.90
59857;DHT22;45733;52.668;6.860;2023-04-03T00:04:33;2.80;99.90
59857;DHT22;45733;52.668;6.860;2023-04-03T00:06:59;2.80;99.90
59857;DHT22;45733;52.668;6.860;2023-04-03T00:09:24;2.80;99.90
59857;DHT22;45733;52.668;6.860;2023-04-03T00:11:50;2.80;99.90
59857;DHT22;45733;52.668;6.860;2023-04-03T00:14:16;2.70;99.90
59857;DHT22;45733;52.668;6.860;2023-04-03T00:16:41;2.70;99.90
59857;DHT22;45733;52.668;6.860;2023-04-03T00:19:07;2.70;99.90
59857;DHT22;45733;52.668;6.860;2023-04-03T00:21:33;2.70;99.90
59857;DHT22;45733;52.668;6.860;2023-04-03T00:23:59;2.70;99.90
59857;DHT22;45733;52.668;6.860;2023-04-03T00:26:25;2.70;99.90
59857;DHT22;45733;52.668;6.860;2023-04-03T00:28:51;2.60;99.90
59857;DHT22;45733;52.668;6.860;2023-04-03T00:31:16;2.60;99.90
59857;DHT22;45733;52.668;6.860;2023-04-03T00:33:42;2.70;99.90
59857;DHT22;45733;52.668;6.860;2023-04-03T00:36:09;2.70;99.90
59857;DHT22;45733;52.668;6.860;2023-04-03T00:38:36;2.60;99.90
59857;DHT22;45733;52.668;6.860;2023-04-03T00:41:02;2.70;99.90
59857;DHT22;45733;52.668;6.860;2023-04-03T00:43:28;2.50;99.90
59857;DHT22;45733;52.668;6.860;2023-04-03T00:45:57;2.50;99.90
59857;DHT22;45733;52.668;6.860;2023-04-03T00:48:34;2.50;99.90
59857;DHT22;45733;52.668;6.860;2023-04-03T00:51:03;2.50;99.90
59857;DHT22;45733;52.668;6.860;2023-04-03T00:53:33;2.50;99.90
59857;DHT22;45733;52.668;6.860;2023-04-03T00:56:01;2.40;99.90
59857;DHT22;45733;52.668;6.860;2023-04-03T00:58:51;2.40;99.90
59857;DHT22;45733;52.668;6.860;2023-04-03T01:01:21;2.30;99.90
59857;DHT22;45733;52.668;6.860;2023-04-03T01:03:48;2.40;99.90
59857;DHT22;45733;52.668;6.860;2023-04-03T01:06:17;2.40;99.90
59857;DHT22;45733;52.668;6.860;2023-04-03T01:08:48;2.30;99.90
59857;DHT22;45733;52.668;6.860;2023-04-03T01:11:14;2.30;99.90
59857;DHT22;45733;52.668;6.860;2023-04-03T01:13:40;2.30;99.90
59857;DHT22;45733;52.668;6.860;2023-04-03T01:16:07;2.30;99.90
59857;DHT22;45733;52.668;6.860;2023-04-03T01:18:34;2.20;99.90
59857;DHT22;45733;52.668;6.860;2023-04-03T01:26:23;2.20;99.90
59857;DHT22;45733;52.668;6.860;2023-04-03T01:28:49;2.20;99.90
59857;DHT22;45733;52.668;6.860;2023-04-03T01:31:43;2.20;99.90
59857;DHT22;45733;52.668;6.860;2023-04-03T01:34:09;2.10;99.90
59857;DHT22;45733;52.668;6.860;2023-04-03T01:36:35;2.10;99.90
59857;DHT22;45733;52.668;6.860;2023-04-03T01:39:01;2.10;99.90
59857;DHT22;45733;52.668;6.860;2023-04-03T01:41:28;2.10;99.90
59857;DHT22;45733;52.668;6.860;2023-04-03T01:43:54;2.10;99.90
59857;DHT22;45733;52.668;6.860;2023-04-03T01:46:20;2.10;99.90
59857;DHT22;45733;52.668;6.860;2023-04-03T01:48:46;2.00;99.90
59857;DHT22;45733;52.668;6.860;2023-04-03T01:51:12;2.00;99.90
59857;DHT22;45733;52.668;6.860;2023-04-03T01:53:38;2.00;99.90
59857;DHT22;45733;52.668;6.860;2023-04-03T01:56:04;1.90;99.90
59857;DHT22;45733;52.668;6.860;2023-04-03T01:58:30;1.80;99.90
59857;DHT22;45733;52.668;6.860;2023-04-03T02:00:55;1.70;99.90
59857;DHT22;45733;52.668;6.860;2023-04-03T02:03:21;1.70;99.90
59857;DHT22;45733;52.668;6.860;2023-04-03T02:05:47;1.60;99.90
59857;DHT22;45733;52.668;6.860;2023-04-03T02:08:13;1.60;99.90
59857;DHT22;45733;52.668;6.860;2023-04-03T02:10:39;1.50;99.90
59857;DHT22;45733;52.668;6.860;2023-04-03T02:13:04;1.70;99.90
59857;DHT22;45733;52.668;6.860;2023-04-03T02:15:30;1.70;99.90
59857;DHT22;45733;52.668;6.860;2023-04-03T02:17:56;1.60;99.90
59857;DHT22;45733;52.668;6.860;2023-04-03T02:20:22;1.60;99.90
59857;DHT22;45733;52.668;6.860;2023-04-03T02:22:47;1.50;99.90
59857;DHT22;45733;52.668;6.860;2023-04-03T02:25:13;1.60;99.90
59857;DHT22;45733;52.668;6.860;2023-04-03T02:27:39;1.60;99.90
59857;DHT22;45733;52.668;6.860;2023-04-03T02:30:06;1.50;99.90
59857;DHT22;45733;52.668;6.860;2023-04-03T02:32:32;1.60;99.90
59857;DHT22;45733;52.668;6.860;2023-04-03T02:34:58;1.60;99.90
59857;DHT22;45733;52.668;6.860;2023-04-03T02:37:23;1.50;99.90
59857;DHT22;45733;52.668;6.860;2023-04-03T02:39:49;1.50;99.90
59857;DHT22;45733;52.668;6.860;2023-04-03T02:42:15;1.40;99.90
59857;DHT22;45733;52.668;6.860;2023-04-03T02:44:41;1.40;99.90
59857;DHT22;45733;52.668;6.860;2023-04-03T02:47:06;1.30;99.90
59857;DHT22;45733;52.668;6.860;2023-04-03T02:49:32;1.30;99.90
59857;DHT22;45733;52.668;6.860;2023-04-03T02:51:58;1.30;99.90
59857;DHT22;45733;52.668;6.860;2023-04-03T02:54:23;1.20;99.90
59857;DHT22;45733;52.668;6.860;2023-04-03T02:56:53;1.20;99.90
59857;DHT22;45733;52.668;6.860;2023-04-03T02:59:19;1.20;99.90
59857;DHT22;45733;52.668;6.860;2023-04-03T03:01:45;1.10;99.90
59857;DHT22;45733;52.668;6.860;2023-04-03T03:04:11;1.10;99.90
59857;DHT22;45733;52.668;6.860;2023-04-03T03:06:37;1.00;99.90
59857;DHT22;45733;52.668;6.860;2023-04-03T03:09:03;1.00;99.90
59857;DHT22;45733;52.668;6.860;2023-04-03T03:11:29;1.00;99.90
59857;DHT22;45733;52.668;6.860;2023-04-03T03:13:55;0.80;99.90
59857;DHT22;45733;52.668;6.860;2023-04-03T03:16:21;0.90;99.90
59857;DHT22;45733;52.668;6.860;2023-04-03T03:18:47;0.80;99.90
59857;DHT22;45733;52.668;6.860;2023-04-03T03:21:12;0.80;99.90
59857;DHT22;45733;52.668;6.860;2023-04-03T03:23:38;0.80;99.90
59857;DHT22;45733;52.668;6.860;2023-04-03T03:26:06;0.70;99.90
59857;DHT22;45733;52.668;6.860;2023-04-03T03:28:32;0.80;99.90
59857;DHT22;45733;52.668;6.860;2023-04-03T03:30:59;0.70;99.90
59857;DHT22;45733;52.668;6.860;2023-04-03T03:33:25;0.70;99.90
59857;DHT22;45733;52.668;6.860;2023-04-03T03:35:52;0.70;99.90
59857;DHT22;45733;52.668;6.860;2023-04-03T03:38:18;0.60;99.90
59857;DHT22;45733;52.668;6.860;2023-04-03T03:40:43;0.60;99.90
59857;DHT22;45733;52.668;6.860;2023-04-03T03:43:09;0.60;99.90
59857;DHT22;45733;52.668;6.860;2023-04-03T03:45:35;0.60;99.90
59857;DHT22;45733;52.668;6.860;2023-04-03T03:48:01;0.60;99.90
59857;DHT22;45733;52.668;6.860;2023-04-03T03:50:27;0.60;99.90
59857;DHT22;45733;52.668;6.860;2023-04-03T03:52:52;0.60;99.90
59857;DHT22;45733;52.668;6.860;2023-04-03T03:55:18;0.60;99.90
59857;DHT22;45733;52.668;6.860;2023-04-03T03:57:44;0.60;99.90
59857;DHT22;45733;52.668;6.860;2023-04-03T04:00:10;0.60;99.90
59857;DHT22;45733;52.668;6.860;2023-04-03T04:02:35;0.60;99.90
59857;DHT22;45733;52.668;6.860;2023-04-03T04:05:01;0.60;99.90
59857;DHT22;45733;52.668;6.860;2023-04-03T04:07:27;0.50;99.90
59857;DHT22;45733;52.668;6.860;2023-04-03T04:09:54;0.50;99.90
59857;DHT22;45733;52.668;6.860;2023-04-03T04:12:20;0.50;99.90
59857;DHT22;45733;52.668;6.860;2023-04-03T04:14:46;0.50;99.90
59857;DHT22;45733;52.668;6.860;2023-04-03T04:17:13;0.40;99.90
59857;DHT22;45733;52.668;6.860;2023-04-03T04:19:39;0.40;99.90
59857;DHT22;45733;52.668;6.860;2023-04-03T04:22:05;0.30;99.90
59857;DHT22;45733;52.668;6.860;2023-04-03T04:24:30;0.30;99.90
59857;DHT22;45733;52.668;6.860;2023-04-03T04:26:56;0.40;99.90
59857;DHT22;45733;52.668;6.860;2023-04-03T04:29:22;0.30;99.90
59857;DHT22;45733;52.668;6.860;2023-04-03T04:31:47;0.30;99.90
59857;DHT22;45733;52.668;6.860;2023-04-03T04:34:13;0.30;99.90
59857;DHT22;45733;52.668;6.860;2023-04-03T04:36:39;0.30;99.90
59857;DHT22;45733;52.668;6.860;2023-04-03T04:39:05;0.40;99.90
59857;DHT22;45733;52.668;6.860;2023-04-03T04:41:31;0.30;99.90
59857;DHT22;45733;52.668;6.860;2023-04-03T04:43:57;0.30;99.90
59857;DHT22;45733;52.668;6.860;2023-04-03T04:46:23;0.20;99.90
59857;DHT22;45733;52.668;6.860;2023-04-03T04:48:49;0.20;99.90
59857;DHT22;45733;52.668;6.860;2023-04-03T04:51:15;0.20;99.90
59857;DHT22;45733;52.668;6.860;2023-04-03T04:53:41;0.20;99.90
59857;DHT22;45733;52.668;6.860;2023-04-03T04:56:08;0.20;99.90
59857;DHT22;45733;52.668;6.860;2023-04-03T04:58:34;0.20;99.90
59857;DHT22;45733;52.668;6.860;2023-04-03T05:01:00;0.20;99.90
59857;DHT22;45733;52.668;6.860;2023-04-03T05:03:26;0.20;99.90
59857;DHT22;45733;52.668;6.860;2023-04-03T05:05:52;0.20;99.90
59857;DHT22;45733;52.668;6.860;2023-04-03T05:08:17;0.10;99.90
59857;DHT22;45733;52.668;6.860;2023-04-03T05:10:45;0.20;99.90
59857;DHT22;45733;52.668;6.860;2023-04-03T05:13:11;0.10;99.90
59857;DHT22;45733;52.668;6.860;2023-04-03T05:15:37;0.10;99.90
59857;DHT22;45733;52.668;6.860;2023-04-03T05:18:02;0.10;99.90
59857;DHT22;45733;52.668;6.860;2023-04-03T05:20:28;0.10;99.90
59857;DHT22;45733;52.668;6.860;2023-04-03T05:22:54;0.10;99.90
59857;DHT22;45733;52.668;6.860;2023-04-03T05:25:20;0.10;99.90
59857;DHT22;45733;52.668;6.860;2023-04-03T05:27:45;0.20;99.90
59857;DHT22;45733;52.668;6.860;2023-04-03T05:30:11;0.80;99.90
59857;DHT22;45733;52.668;6.860;2023-04-03T05:32:37;1.60;99.90
59857;DHT22;45733;52.668;6.860;2023-04-03T05:35:04;2.10;99.90
59857;DHT22;45733;52.668;6.860;2023-04-03T05:37:31;2.70;99.90
59857;DHT22;45733;52.668;6.860;2023-04-03T05:39:56;2.90;99.90
59857;DHT22;45733;52.668;6.860;2023-04-03T05:42:22;3.20;99.90
59857;DHT22;45733;52.668;6.860;2023-04-03T05:44:48;3.80;99.90
59857;DHT22;45733;52.668;6.860;2023-04-03T05:47:16;4.00;99.90
59857;DHT22;45733;52.668;6.860;2023-04-03T05:49:41;3.90;99.90
59857;DHT22;45733;52.668;6.860;2023-04-03T05:54:42;4.40;99.90
59857;DHT22;45733;52.668;6.860;2023-04-03T05:57:09;3.30;99.90
59857;DHT22;45733;52.668;6.860;2023-04-03T05:59:35;2.50;99.90
59857;DHT22;45733;52.668;6.860;2023-04-03T06:02:01;2.10;99.90
59857;DHT22;45733;52.668;6.860;2023-04-03T06:04:27;2.10;99.90
59857;DHT22;45733;52.668;6.860;2023-04-03T06:06:57;1.90;99.90
59857;DHT22;45733;52.668;6.860;2023-04-03T06:09:27;2.00;99.90
59857;DHT22;45733;52.668;6.860;2023-04-03T06:11:54;1.80;99.90
59857;DHT22;45733;52.668;6.860;2023-04-03T06:14:20;1.90;99.90
59857;DHT22;45733;52.668;6.860;2023-04-03T06:16:45;2.20;99.90
59857;DHT22;45733;52.668;6.860;2023-04-03T06:19:12;2.20;99.90
59857;DHT22;45733;52.668;6.860;2023-04-03T06:21:38;2.10;99.90
59857;DHT22;45733;52.668;6.860;2023-04-03T06:24:04;2.20;99.90
59857;DHT22;45733;52.668;6.860;2023-04-03T06:26:31;2.30;99.90
59857;DHT22;45733;52.668;6.860;2023-04-03T06:28:57;2.20;99.90
59857;DHT22;45733;52.668;6.860;2023-04-03T06:31:23;2.30;99.90
59857;DHT22;45733;52.668;6.860;2023-04-03T06:33:49;2.40;99.90
59857;DHT22;45733;52.668;6.860;2023-04-03T06:36:15;2.60;99.90
59857;DHT22;45733;52.668;6.860;2023-04-03T06:38:45;2.40;99.90
59857;DHT22;45733;52.668;6.860;2023-04-03T06:41:12;2.60;99.90
59857;DHT22;45733;52.668;6.860;2023-04-03T06:43:37;2.70;99.90
59857;DHT22;45733;52.668;6.860;2023-04-03T06:46:03;2.80;99.90
59857;DHT22;45733;52.668;6.860;2023-04-03T06:48:29;2.90;99.90
59857;DHT22;45733;52.668;6.860;2023-04-03T06:50:55;2.80;99.90
59857;DHT22;45733;52.668;6.860;2023-04-03T06:53:21;2.80;99.90
59857;DHT22;45733;52.668;6.860;2023-04-03T06:55:47;2.90;99.90
59857;DHT22;45733;52.668;6.860;2023-04-03T06:58:13;3.00;99.90
59857;DHT22;45733;52.668;6.860;2023-04-03T07:00:40;3.20;99.90
59857;DHT22;45733;52.668;6.860;2023-04-03T07:03:06;3.30;99.90
59857;DHT22;45733;52.668;6.860;2023-04-03T07:05:32;3.30;99.90
59857;DHT22;45733;52.668;6.860;2023-04-03T07:07:58;3.50;99.90
59857;DHT22;45733;52.668;6.860;2023-04-03T07:10:23;3.40;99.90
59857;DHT22;45733;52.668;6.860;2023-04-03T07:12:49;3.40;99.90
59857;DHT22;45733;52.668;6.860;2023-04-03T07:15:15;3.50;99.90
59857;DHT22;45733;52.668;6.860;2023-04-03T07:17:41;3.40;99.90
59857;DHT22;45733;52.668;6.860;2023-04-03T07:20:07;3.70;99.90
59857;DHT22;45733;52.668;6.860;2023-04-03T07:22:33;3.80;99.90
59857;DHT22;45733;52.668;6.860;2023-04-03T07:24:59;4.00;99.90
59857;DHT22;45733;52.668;6.860;2023-04-03T07:27:25;4.00;99.90
59857;DHT22;45733;52.668;6.860;2023-04-03T07:29:51;4.20;99.90
59857;DHT22;45733;52.668;6.860;2023-04-03T07:32:17;4.20;99.90
59857;DHT22;45733;52.668;6.860;2023-04-03T07:34:43;4.40;99.90
59857;DHT22;45733;52.668;6.860;2023-04-03T07:37:09;4.60;99.90
59857;DHT22;45733;52.668;6.860;2023-04-03T07:39:35;4.40;99.90
59857;DHT22;45733;52.668;6.860;2023-04-03T07:42:01;4.30;99.90
59857;DHT22;45733;52.668;6.860;2023-04-03T07:44:27;4.50;99.90
59857;DHT22;45733;52.668;6.860;2023-04-03T07:47:11;4.80;99.90
59857;DHT22;45733;52.668;6.860;2023-04-03T07:49:38;5.20;99.90
59857;DHT22;45733;52.668;6.860;2023-04-03T07:52:06;5.40;99.90
59857;DHT22;45733;52.668;6.860;2023-04-03T07:54:32;5.30;99.90
59857;DHT22;45733;52.668;6.860;2023-04-03T07:56:59;5.10;99.90
59857;DHT22;45733;52.668;6.860;2023-04-03T07:59:24;5.40;99.90
59857;DHT22;45733;52.668;6.860;2023-04-03T08:01:50;5.20;99.90
59857;DHT22;45733;52.668;6.860;2023-04-03T08:04:16;4.80;99.90
59857;DHT22;45733;52.668;6.860;2023-04-03T08:06:41;5.10;99.90
59857;DHT22;45733;52.668;6.860;2023-04-03T08:09:07;5.40;99.90
59857;DHT22;45733;52.668;6.860;2023-04-03T08:11:33;5.30;99.90
59857;DHT22;45733;52.668;6.860;2023-04-03T08:13:59;5.40;99.90
59857;DHT22;45733;52.668;6.860;2023-04-03T08:16:25;5.80;99.90
59857;DHT22;45733;52.668;6.860;2023-04-03T08:18:52;5.80;99.90
59857;DHT22;45733;52.668;6.860;2023-04-03T08:21:18;5.60;99.90
59857;DHT22;45733;52.668;6.860;2023-04-03T08:23:44;6.20;99.90
59857;DHT22;45733;52.668;6.860;2023-04-03T08:26:12;6.10;99.90
59857;DHT22;45733;52.668;6.860;2023-04-03T08:28:38;5.60;99.90
59857;DHT22;45733;52.668;6.860;2023-04-03T08:31:06;5.80;99.90
59857;DHT22;45733;52.668;6.860;2023-04-03T08:33:33;5.70;99.90
59857;DHT22;45733;52.668;6.860;2023-04-03T08:36:01;5.90;99.90
59857;DHT22;45733;52.668;6.860;2023-04-03T08:38:27;6.10;99.90
59857;DHT22;45733;52.668;6.860;2023-04-03T08:41:16;5.60;99.90
59857;DHT22;45733;52.668;6.860;2023-04-03T08:44:00;6.00;99.90
59857;DHT22;45733;52.668;6.860;2023-04-03T08:54:56;6.50;99.90
59857;DHT22;45733;52.668;6.860;2023-04-03T08:57:30;6.80;99.90
59857;DHT22;45733;52.668;6.860;2023-04-03T08:59:59;7.20;99.90
59857;DHT22;45733;52.668;6.860;2023-04-03T09:02:41;7.30;99.90
59857;DHT22;45733;52.668;6.860;2023-04-03T09:08:23;7.70;99.90
59857;DHT22;45733;52.668;6.860;2023-04-03T09:13:48;6.90;99.90
59857;DHT22;45733;52.668;6.860;2023-04-03T09:22:20;6.40;99.90
59857;DHT22;45733;52.668;6.860;2023-04-03T09:24:52;7.00;99.90
59857;DHT22;45733;52.668;6.860;2023-04-03T09:27:21;6.70;99.90
59857;DHT22;45733;52.668;6.860;2023-04-03T09:29:47;6.80;99.90
59857;DHT22;45733;52.668;6.860;2023-04-03T09:32:30;7.30;99.90
59857;DHT22;45733;52.668;6.860;2023-04-03T09:35:03;7.40;99.90
59857;DHT22;45733;52.668;6.860;2023-04-03T09:37:43;7.90;99.90
59857;DHT22;45733;52.668;6.860;2023-04-03T09:42:56;7.00;96.60
59857;DHT22;45733;52.668;6.860;2023-04-03T09:45:34;7.20;99.80
59857;DHT22;45733;52.668;6.860;2023-04-03T09:48:08;6.90;97.80
59857;DHT22;45733;52.668;6.860;2023-04-03T09:53:34;7.90;99.90
59857;DHT22;45733;52.668;6.860;2023-04-03T09:56:03;8.00;99.90
59857;DHT22;45733;52.668;6.860;2023-04-03T09:58:32;8.50;99.90
59857;DHT22;45733;52.668;6.860;2023-04-03T10:01:01;8.20;99.90
59857;DHT22;45733;52.668;6.860;2023-04-03T10:03:35;8.90;99.90
59857;DHT22;45733;52.668;6.860;2023-04-03T10:06:24;8.40;99.50
59857;DHT22;45733;52.668;6.860;2023-04-03T10:09:01;8.50;99.90
59857;DHT22;45733;52.668;6.860;2023-04-03T10:11:29;9.10;99.90
59857;DHT22;45733;52.668;6.860;2023-04-03T10:14:00;8.90;99.90
59857;DHT22;45733;52.668;6.860;2023-04-03T10:16:33;9.00;99.90
59857;DHT22;45733;52.668;6.860;2023-04-03T10:27:13;8.20;98.20
59857;DHT22;45733;52.668;6.860;2023-04-03T10:35:39;8.60;99.90
59857;DHT22;45733;52.668;6.860;2023-04-03T10:38:19;9.40;99.90
59857;DHT22;45733;52.668;6.860;2023-04-03T10:41:05;9.10;99.90
59857;DHT22;45733;52.668;6.860;2023-04-03T10:44:14;8.80;97.20
59857;DHT22;45733;52.668;6.860;2023-04-03T10:46:47;9.00;99.90
59857;DHT22;45733;52.668;6.860;2023-04-03T10:49:39;9.30;99.90
59857;DHT22;45733;52.668;6.860;2023-04-03T10:52:23;9.20;99.90
59857;DHT22;45733;52.668;6.860;2023-04-03T10:55:16;8.50;97.80
59857;DHT22;45733;52.668;6.860;2023-04-03T10:57:47;9.60;99.90
59857;DHT22;45733;52.668;6.860;2023-04-03T11:00:18;8.50;96.10
59857;DHT22;45733;52.668;6.860;2023-04-03T11:07:53;8.70;98.90
59857;DHT22;45733;52.668;6.860;2023-04-03T11:10:50;9.10;99.90
59857;DHT22;45733;52.668;6.860;2023-04-03T11:16:08;8.40;94.70
59857;DHT22;45733;52.668;6.860;2023-04-03T11:18:43;8.50;94.40
59857;DHT22;45733;52.668;6.860;2023-04-03T11:24:23;8.80;95.20
59857;DHT22;45733;52.668;6.860;2023-04-03T11:26:50;9.00;98.30
59857;DHT22;45733;52.668;6.860;2023-04-03T11:29:21;9.30;98.80
59857;DHT22;45733;52.668;6.860;2023-04-03T11:34:44;9.00;96.00
59857;DHT22;45733;52.668;6.860;2023-04-03T11:38:14;9.70;99.90
59857;DHT22;45733;52.668;6.860;2023-04-03T11:42:46;8.70;94.80
59857;DHT22;45733;52.668;6.860;2023-04-03T11:45:22;9.50;98.40
59857;DHT22;45733;52.668;6.860;2023-04-03T11:47:57;8.90;94.60
59857;DHT22;45733;52.668;6.860;2023-04-03T11:55:46;9.30;95.60
59857;DHT22;45733;52.668;6.860;2023-04-03T11:58:19;9.20;96.70
59857;DHT22;45733;52.668;6.860;2023-04-03T12:16:27;9.40;95.70
59857;DHT22;45733;52.668;6.860;2023-04-03T12:26:25;9.40;95.20
59857;DHT22;45733;52.668;6.860;2023-04-03T12:28:53;9.70;97.50
59857;DHT22;45733;52.668;6.860;2023-04-03T12:31:20;10.40;99.90
59857;DHT22;45733;52.668;6.860;2023-04-03T12:37:00;10.00;95.80
59857;DHT22;45733;52.668;6.860;2023-04-03T12:39:42;10.30;98.90
59857;DHT22;45733;52.668;6.860;2023-04-03T12:42:47;10.90;99.90
59857;DHT22;45733;52.668;6.860;2023-04-03T12:45:24;10.10;99.90
59857;DHT22;45733;52.668;6.860;2023-04-03T12:47:55;9.50;92.60
59857;DHT22;45733;52.668;6.860;2023-04-03T12:50:32;9.50;96.00
59857;DHT22;45733;52.668;6.860;2023-04-03T12:53:06;9.10;94.20
59857;DHT22;45733;52.668;6.860;2023-04-03T12:55:32;9.80;99.90
59857;DHT22;45733;52.668;6.860;2023-04-03T12:58:23;9.80;96.40
59857;DHT22;45733;52.668;6.860;2023-04-03T13:01:01;10.00;95.30
59857;DHT22;45733;52.668;6.860;2023-04-03T13:03:28;9.50;94.60
59857;DHT22;45733;52.668;6.860;2023-04-03T13:06:00;10.10;99.90
59857;DHT22;45733;52.668;6.860;2023-04-03T13:08:27;10.20;98.40
59857;DHT22;45733;52.668;6.860;2023-04-03T13:13:25;9.60;92.90
59857;DHT22;45733;52.668;6.860;2023-04-03T13:15:52;9.60;93.80
59857;DHT22;45733;52.668;6.860;2023-04-03T13:18:35;10.50;96.10
59857;DHT22;45733;52.668;6.860;2023-04-03T13:21:07;9.60;94.60
59857;DHT22;45733;52.668;6.860;2023-04-03T13:23:38;10.00;95.20
59857;DHT22;45733;52.668;6.860;2023-04-03T13:26:06;9.60;95.00
59857;DHT22;45733;52.668;6.860;2023-04-03T13:28:33;9.70;94.30
59857;DHT22;45733;52.668;6.860;2023-04-03T13:31:07;10.30;98.60
59857;DHT22;45733;52.668;6.860;2023-04-03T13:33:36;10.80;96.90
59857;DHT22;45733;52.668;6.860;2023-04-03T13:36:18;10.50;96.80
59857;DHT22;45733;52.668;6.860;2023-04-03T13:38:45;9.70;92.80
59857;DHT22;45733;52.668;6.860;2023-04-03T13:41:34;9.60;93.10
59857;DHT22;45733;52.668;6.860;2023-04-03T13:44:16;10.40;97.10
59857;DHT22;45733;52.668;6.860;2023-04-03T13:46:43;9.80;93.10
59857;DHT22;45733;52.668;6.860;2023-04-03T13:49:30;9.60;91.60
59857;DHT22;45733;52.668;6.860;2023-04-03T13:51:57;9.80;94.10
59857;DHT22;45733;52.668;6.860;2023-04-03T13:54:29;9.70;93.50
59857;DHT22;45733;52.668;6.860;2023-04-03T13:56:56;9.70;92.70
59857;DHT22;45733;52.668;6.860;2023-04-03T13:59:31;9.90;93.00
59857;DHT22;45733;52.668;6.860;2023-04-03T14:04:35;9.90;94.30
59857;DHT22;45733;52.668;6.860;2023-04-03T14:07:10;10.00;92.40
59857;DHT22;45733;52.668;6.860;2023-04-03T14:09:36;9.80;93.50
59857;DHT22;45733;52.668;6.860;2023-04-03T14:12:31;9.60;92.10
59857;DHT22;45733;52.668;6.860;2023-04-03T14:15:00;10.00;93.60
59857;DHT22;45733;52.668;6.860;2023-04-03T14:17:28;9.70;91.50
59857;DHT22;45733;52.668;6.860;2023-04-03T14:19:55;10.10;93.40
59857;DHT22;45733;52.668;6.860;2023-04-03T14:22:24;10.00;91.50
59857;DHT22;45733;52.668;6.860;2023-04-03T14:24:51;9.90;90.40
59857;DHT22;45733;52.668;6.860;2023-04-03T14:27:24;10.10;93.30
59857;DHT22;45733;52.668;6.860;2023-04-03T14:29:51;10.20;90.70
59857;DHT22;45733;52.668;6.860;2023-04-03T14:32:19;10.70;94.70
59857;DHT22;45733;52.668;6.860;2023-04-03T14:34:46;10.70;93.10
59857;DHT22;45733;52.668;6.860;2023-04-03T14:37:18;10.20;89.40
59857;DHT22;45733;52.668;6.860;2023-04-03T14:39:44;10.40;93.60
59857;DHT22;45733;52.668;6.860;2023-04-03T14:42:17;10.00;92.70
59857;DHT22;45733;52.668;6.860;2023-04-03T14:44:43;9.90;91.10
59857;DHT22;45733;52.668;6.860;2023-04-03T14:47:29;9.80;91.90
59857;DHT22;45733;52.668;6.860;2023-04-03T14:49:55;10.00;90.30
59857;DHT22;45733;52.668;6.860;2023-04-03T14:52:27;10.00;91.60
59857;DHT22;45733;52.668;6.860;2023-04-03T14:54:53;9.80;92.30
59857;DHT22;45733;52.668;6.860;2023-04-03T14:57:20;9.90;93.70
59857;DHT22;45733;52.668;6.860;2023-04-03T14:59:47;10.00;93.20
59857;DHT22;45733;52.668;6.860;2023-04-03T15:04:58;10.00;90.40
59857;DHT22;45733;52.668;6.860;2023-04-03T15:07:25;10.20;92.00
59857;DHT22;45733;52.668;6.860;2023-04-03T15:09:52;10.10;91.90
59857;DHT22;45733;52.668;6.860;2023-04-03T15:12:18;10.60;92.30
59857;DHT22;45733;52.668;6.860;2023-04-03T15:14:43;9.90;91.00
59857;DHT22;45733;52.668;6.860;2023-04-03T15:17:17;10.00;91.80
59857;DHT22;45733;52.668;6.860;2023-04-03T15:19:45;10.10;91.40
59857;DHT22;45733;52.668;6.860;2023-04-03T15:22:19;10.20;93.30
59857;DHT22;45733;52.668;6.860;2023-04-03T15:24:45;10.20;90.80
59857;DHT22;45733;52.668;6.860;2023-04-03T15:27:12;10.10;92.50
59857;DHT22;45733;52.668;6.860;2023-04-03T15:29:39;10.00;90.10
59857;DHT22;45733;52.668;6.860;2023-04-03T15:32:06;10.10;92.20
59857;DHT22;45733;52.668;6.860;2023-04-03T15:34:32;10.00;92.10
59857;DHT22;45733;52.668;6.860;2023-04-03T15:36:58;9.90;91.90
59857;DHT22;45733;52.668;6.860;2023-04-03T15:39:25;9.90;91.50
59857;DHT22;45733;52.668;6.860;2023-04-03T15:41:51;10.00;91.90
59857;DHT22;45733;52.668;6.860;2023-04-03T15:44:18;9.90;90.30
59857;DHT22;45733;52.668;6.860;2023-04-03T15:46:45;9.90;91.20
59857;DHT22;45733;52.668;6.860;2023-04-03T15:49:12;9.80;91.00
59857;DHT22;45733;52.668;6.860;2023-04-03T15:51:38;9.70;90.20
59857;DHT22;45733;52.668;6.860;2023-04-03T15:54:04;9.80;90.30
59857;DHT22;45733;52.668;6.860;2023-04-03T15:56:30;10.00;92.00
59857;DHT22;45733;52.668;6.860;2023-04-03T15:58:55;10.00;91.30
59857;DHT22;45733;52.668;6.860;2023-04-03T16:01:21;10.00;92.20
59857;DHT22;45733;52.668;6.860;2023-04-03T16:03:47;10.00;92.90
59857;DHT22;45733;52.668;6.860;2023-04-03T16:06:14;9.70;90.80
59857;DHT22;45733;52.668;6.860;2023-04-03T16:08:40;9.70;92.40
59857;DHT22;45733;52.668;6.860;2023-04-03T16:11:06;9.90;91.40
59857;DHT22;45733;52.668;6.860;2023-04-03T16:13:32;9.70;91.30
59857;DHT22;45733;52.668;6.860;2023-04-03T16:15:59;10.00;93.10
59857;DHT22;45733;52.668;6.860;2023-04-03T16:18:26;9.90;91.90
59857;DHT22;45733;52.668;6.860;2023-04-03T16:20:52;9.70;91.30
59857;DHT22;45733;52.668;6.860;2023-04-03T16:23:18;9.70;92.30
59857;DHT22;45733;52.668;6.860;2023-04-03T16:25:43;9.60;92.90
59857;DHT22;45733;52.668;6.860;2023-04-03T16:28:13;9.60;94.50
59857;DHT22;45733;52.668;6.860;2023-04-03T16:30:43;9.60;93.10
59857;DHT22;45733;52.668;6.860;2023-04-03T16:33:10;9.60;92.60
59857;DHT22;45733;52.668;6.860;2023-04-03T16:35:36;9.30;90.10
59857;DHT22;45733;52.668;6.860;2023-04-03T16:38:03;9.30;92.20
59857;DHT22;45733;52.668;6.860;2023-04-03T16:40:29;9.30;93.70
59857;DHT22;45733;52.668;6.860;2023-04-03T16:42:55;9.50;94.00
59857;DHT22;45733;52.668;6.860;2023-04-03T16:45:20;9.40;93.20
59857;DHT22;45733;52.668;6.860;2023-04-03T16:47:46;9.30;92.00
59857;DHT22;45733;52.668;6.860;2023-04-03T16:50:12;9.30;92.30
59857;DHT22;45733;52.668;6.860;2023-04-03T16:52:37;9.10;92.10
59857;DHT22;45733;52.668;6.860;2023-04-03T16:55:03;9.10;91.90
59857;DHT22;45733;52.668;6.860;2023-04-03T16:57:29;9.10;92.00
59857;DHT22;45733;52.668;6.860;2023-04-03T16:59:55;8.90;92.20
59857;DHT22;45733;52.668;6.860;2023-04-03T17:02:22;8.90;93.00
59857;DHT22;45733;52.668;6.860;2023-04-03T17:04:50;8.80;92.60
59857;DHT22;45733;52.668;6.860;2023-04-03T17:07:20;8.90;92.50
59857;DHT22;45733;52.668;6.860;2023-04-03T17:09:47;8.80;93.30
59857;DHT22;45733;52.668;6.860;2023-04-03T17:12:14;8.70;95.40
59857;DHT22;45733;52.668;6.860;2023-04-03T17:14:40;8.60;96.40
59857;DHT22;45733;52.668;6.860;2023-04-03T17:17:06;8.60;94.50
59857;DHT22;45733;52.668;6.860;2023-04-03T17:19:34;8.40;96.30
59857;DHT22;45733;52.668;6.860;2023-04-03T17:22:00;8.40;94.60
59857;DHT22;45733;52.668;6.860;2023-04-03T17:24:26;8.40;96.10
59857;DHT22;45733;52.668;6.860;2023-04-03T17:26:52;8.30;99.80
59857;DHT22;45733;52.668;6.860;2023-04-03T17:29:18;8.30;97.00
59857;DHT22;45733;52.668;6.860;2023-04-03T17:31:44;8.10;96.20
59857;DHT22;45733;52.668;6.860;2023-04-03T17:34:09;8.00;98.90
59857;DHT22;45733;52.668;6.860;2023-04-03T17:36:37;7.90;97.40
59857;DHT22;45733;52.668;6.860;2023-04-03T17:39:03;7.80;99.10